Terminal Aerodrome Forecast
Issued by NWS

Home | Current Version | Previous Version | Text Only | Print | Product List | Glossary On
Versions: 1 2 3 4 5 6 7 8 9 10 11 12
998
FTPA31 PHFO 231741
TAFHJH
TAF
PHJH 231741Z 2318/2418 01015G25KT 5SM -RA BR BKN025 OVC035
      TEMPO 2318/2320 2SM RA BR BKN010
     FM232000 01022G30KT 5SM -RA BR BKN025 OVC035
     FM241000 06022G30KT P6SM VCSH BKN025 OVC035
      AMD NOT SKED 2404/2418=

USA.gov is the U.S. government's official web portal to all federal, state and local government web resources and services.